sensor_id;sensor_type;location;lat;lon;timestamp;temperature;humidity
9885;DHT22;4981;50.966;4.842;2022-08-21T00:01:17;17.10;1.00
9885;DHT22;4981;50.966;4.842;2022-08-21T00:03:45;17.10;1.00
9885;DHT22;4981;50.966;4.842;2022-08-21T00:06:13;17.10;1.00
9885;DHT22;4981;50.966;4.842;2022-08-21T00:08:42;17.00;1.00
9885;DHT22;4981;50.966;4.842;2022-08-21T00:11:10;16.90;1.00
9885;DHT22;4981;50.966;4.842;2022-08-21T00:13:39;16.80;1.00
9885;DHT22;4981;50.966;4.842;2022-08-21T00:16:07;16.70;1.00
9885;DHT22;4981;50.966;4.842;2022-08-21T00:18:34;16.80;1.00
9885;DHT22;4981;50.966;4.842;2022-08-21T00:21:02;16.70;1.00
9885;DHT22;4981;50.966;4.842;2022-08-21T00:23:30;16.60;1.00
9885;DHT22;4981;50.966;4.842;2022-08-21T00:25:58;16.40;1.00
9885;DHT22;4981;50.966;4.842;2022-08-21T00:28:25;16.30;1.00
9885;DHT22;4981;50.966;4.842;2022-08-21T00:30:52;16.20;1.00
9885;DHT22;4981;50.966;4.842;2022-08-21T00:33:19;16.10;1.00
9885;DHT22;4981;50.966;4.842;2022-08-21T00:35:47;15.90;1.00
9885;DHT22;4981;50.966;4.842;2022-08-21T00:38:14;15.90;1.00
9885;DHT22;4981;50.966;4.842;2022-08-21T00:40:44;16.00;1.00
9885;DHT22;4981;50.966;4.842;2022-08-21T00:43:14;16.00;1.00
9885;DHT22;4981;50.966;4.842;2022-08-21T00:45:42;15.80;1.00
9885;DHT22;4981;50.966;4.842;2022-08-21T00:48:09;15.60;1.00
9885;DHT22;4981;50.966;4.842;2022-08-21T00:50:42;15.60;1.00
9885;DHT22;4981;50.966;4.842;2022-08-21T00:53:11;15.70;1.00
9885;DHT22;4981;50.966;4.842;2022-08-21T00:55:40;15.70;1.00
9885;DHT22;4981;50.966;4.842;2022-08-21T00:58:10;15.50;1.00
9885;DHT22;4981;50.966;4.842;2022-08-21T01:00:42;15.60;1.00
9885;DHT22;4981;50.966;4.842;2022-08-21T01:03:14;15.40;1.00
9885;DHT22;4981;50.966;4.842;2022-08-21T01:05:42;15.30;1.00
9885;DHT22;4981;50.966;4.842;2022-08-21T01:08:11;15.20;1.00
9885;DHT22;4981;50.966;4.842;2022-08-21T01:10:39;15.20;1.00
9885;DHT22;4981;50.966;4.842;2022-08-21T01:13:08;15.20;1.00
9885;DHT22;4981;50.966;4.842;2022-08-21T01:15:39;15.20;1.00
9885;DHT22;4981;50.966;4.842;2022-08-21T01:18:10;15.30;1.00
9885;DHT22;4981;50.966;4.842;2022-08-21T01:20:40;15.40;1.00
9885;DHT22;4981;50.966;4.842;2022-08-21T01:23:10;15.20;1.00
9885;DHT22;4981;50.966;4.842;2022-08-21T01:25:37;15.20;1.00
9885;DHT22;4981;50.966;4.842;2022-08-21T01:28:10;15.10;1.00
9885;DHT22;4981;50.966;4.842;2022-08-21T01:30:39;14.90;1.00
9885;DHT22;4981;50.966;4.842;2022-08-21T01:33:06;14.70;1.00
9885;DHT22;4981;50.966;4.842;2022-08-21T01:35:33;14.90;1.00
9885;DHT22;4981;50.966;4.842;2022-08-21T01:38:00;14.80;1.00
9885;DHT22;4981;50.966;4.842;2022-08-21T01:40:29;14.80;1.00
9885;DHT22;4981;50.966;4.842;2022-08-21T01:42:57;14.70;1.00
9885;DHT22;4981;50.966;4.842;2022-08-21T01:45:24;14.80;1.00
9885;DHT22;4981;50.966;4.842;2022-08-21T01:47:51;14.80;1.00
9885;DHT22;4981;50.966;4.842;2022-08-21T01:50:20;14.80;1.00
9885;DHT22;4981;50.966;4.842;2022-08-21T01:52:48;14.80;1.00
9885;DHT22;4981;50.966;4.842;2022-08-21T01:55:17;14.80;1.00
9885;DHT22;4981;50.966;4.842;2022-08-21T01:57:46;14.80;1.00
9885;DHT22;4981;50.966;4.842;2022-08-21T02:00:16;14.70;1.00
9885;DHT22;4981;50.966;4.842;2022-08-21T02:02:43;14.60;1.00
9885;DHT22;4981;50.966;4.842;2022-08-21T02:05:11;14.70;1.00
9885;DHT22;4981;50.966;4.842;2022-08-21T02:07:40;14.70;1.00
9885;DHT22;4981;50.966;4.842;2022-08-21T02:10:09;14.80;1.00
9885;DHT22;4981;50.966;4.842;2022-08-21T02:12:37;14.70;1.00
9885;DHT22;4981;50.966;4.842;2022-08-21T02:15:06;14.60;1.00
9885;DHT22;4981;50.966;4.842;2022-08-21T02:17:40;14.70;1.00
9885;DHT22;4981;50.966;4.842;2022-08-21T02:20:09;14.70;1.00
9885;DHT22;4981;50.966;4.842;2022-08-21T02:22:36;14.80;1.00
9885;DHT22;4981;50.966;4.842;2022-08-21T02:25:04;14.60;1.00
9885;DHT22;4981;50.966;4.842;2022-08-21T02:27:37;14.40;1.00
9885;DHT22;4981;50.966;4.842;2022-08-21T02:30:09;14.40;1.00
9885;DHT22;4981;50.966;4.842;2022-08-21T02:32:37;14.40;1.00
9885;DHT22;4981;50.966;4.842;2022-08-21T02:35:05;14.40;1.00
9885;DHT22;4981;50.966;4.842;2022-08-21T02:37:32;14.30;1.00
9885;DHT22;4981;50.966;4.842;2022-08-21T02:40:00;14.50;1.00
9885;DHT22;4981;50.966;4.842;2022-08-21T02:42:27;14.30;1.00
9885;DHT22;4981;50.966;4.842;2022-08-21T02:44:55;14.30;1.00
9885;DHT22;4981;50.966;4.842;2022-08-21T02:47:24;14.20;1.00
9885;DHT22;4981;50.966;4.842;2022-08-21T02:49:52;14.40;1.00
9885;DHT22;4981;50.966;4.842;2022-08-21T02:52:19;14.20;1.00
9885;DHT22;4981;50.966;4.842;2022-08-21T02:54:47;14.20;1.00
9885;DHT22;4981;50.966;4.842;2022-08-21T02:57:14;14.30;1.00
9885;DHT22;4981;50.966;4.842;2022-08-21T02:59:42;14.50;1.00
9885;DHT22;4981;50.966;4.842;2022-08-21T03:02:09;14.50;1.00
9885;DHT22;4981;50.966;4.842;2022-08-21T03:04:38;14.30;1.00
9885;DHT22;4981;50.966;4.842;2022-08-21T03:07:05;14.40;1.00
9885;DHT22;4981;50.966;4.842;2022-08-21T03:09:33;14.30;1.00
9885;DHT22;4981;50.966;4.842;2022-08-21T03:11:59;14.00;1.00
9885;DHT22;4981;50.966;4.842;2022-08-21T03:14:27;14.10;1.00
9885;DHT22;4981;50.966;4.842;2022-08-21T03:16:54;14.30;1.00
9885;DHT22;4981;50.966;4.842;2022-08-21T03:19:21;14.10;1.00
9885;DHT22;4981;50.966;4.842;2022-08-21T03:21:49;13.80;1.00
9885;DHT22;4981;50.966;4.842;2022-08-21T03:24:16;13.90;1.00
9885;DHT22;4981;50.966;4.842;2022-08-21T03:26:44;13.70;1.00
9885;DHT22;4981;50.966;4.842;2022-08-21T03:29:11;13.60;1.00
9885;DHT22;4981;50.966;4.842;2022-08-21T03:31:38;13.60;1.00
9885;DHT22;4981;50.966;4.842;2022-08-21T03:34:05;13.80;1.00
9885;DHT22;4981;50.966;4.842;2022-08-21T03:36:33;13.90;1.00
9885;DHT22;4981;50.966;4.842;2022-08-21T03:39:02;14.10;1.00
9885;DHT22;4981;50.966;4.842;2022-08-21T03:41:30;14.20;1.00
9885;DHT22;4981;50.966;4.842;2022-08-21T03:43:57;14.10;1.00
9885;DHT22;4981;50.966;4.842;2022-08-21T03:46:24;14.20;1.00
9885;DHT22;4981;50.966;4.842;2022-08-21T03:48:51;14.10;1.00
9885;DHT22;4981;50.966;4.842;2022-08-21T03:51:19;14.10;1.00
9885;DHT22;4981;50.966;4.842;2022-08-21T03:53:46;14.20;1.00
9885;DHT22;4981;50.966;4.842;2022-08-21T03:56:15;13.90;1.00
9885;DHT22;4981;50.966;4.842;2022-08-21T03:58:43;13.90;1.00
9885;DHT22;4981;50.966;4.842;2022-08-21T04:01:10;13.90;1.00
9885;DHT22;4981;50.966;4.842;2022-08-21T04:03:38;14.00;1.00
9885;DHT22;4981;50.966;4.842;2022-08-21T04:06:06;14.10;1.00
9885;DHT22;4981;50.966;4.842;2022-08-21T04:08:33;14.00;1.00
9885;DHT22;4981;50.966;4.842;2022-08-21T04:11:01;13.90;1.00
9885;DHT22;4981;50.966;4.842;2022-08-21T04:13:30;13.80;1.00
9885;DHT22;4981;50.966;4.842;2022-08-21T04:15:57;13.60;1.00
9885;DHT22;4981;50.966;4.842;2022-08-21T04:18:25;13.70;1.00
9885;DHT22;4981;50.966;4.842;2022-08-21T04:20:53;13.50;1.00
9885;DHT22;4981;50.966;4.842;2022-08-21T04:23:23;13.40;1.00
9885;DHT22;4981;50.966;4.842;2022-08-21T04:25:52;13.40;1.00
9885;DHT22;4981;50.966;4.842;2022-08-21T04:28:19;13.50;1.00
9885;DHT22;4981;50.966;4.842;2022-08-21T04:30:49;13.50;1.00
9885;DHT22;4981;50.966;4.842;2022-08-21T04:33:17;13.60;1.00
9885;DHT22;4981;50.966;4.842;2022-08-21T04:35:44;13.60;1.00
9885;DHT22;4981;50.966;4.842;2022-08-21T04:38:11;13.50;1.00
9885;DHT22;4981;50.966;4.842;2022-08-21T04:40:38;13.50;1.00
9885;DHT22;4981;50.966;4.842;2022-08-21T04:43:08;13.50;1.00
9885;DHT22;4981;50.966;4.842;2022-08-21T04:45:37;13.50;1.00
9885;DHT22;4981;50.966;4.842;2022-08-21T04:48:08;13.20;1.00
9885;DHT22;4981;50.966;4.842;2022-08-21T04:50:39;13.20;1.00
9885;DHT22;4981;50.966;4.842;2022-08-21T04:53:11;13.20;1.00
9885;DHT22;4981;50.966;4.842;2022-08-21T04:55:39;13.20;1.00
9885;DHT22;4981;50.966;4.842;2022-08-21T04:58:09;13.20;1.00
9885;DHT22;4981;50.966;4.842;2022-08-21T05:00:39;13.10;1.00
9885;DHT22;4981;50.966;4.842;2022-08-21T05:03:09;13.10;1.00
9885;DHT22;4981;50.966;4.842;2022-08-21T05:05:38;13.10;1.00
9885;DHT22;4981;50.966;4.842;2022-08-21T05:08:07;13.40;1.00
9885;DHT22;4981;50.966;4.842;2022-08-21T05:10:35;13.60;1.00
9885;DHT22;4981;50.966;4.842;2022-08-21T05:13:03;13.80;1.00
9885;DHT22;4981;50.966;4.842;2022-08-21T05:15:30;13.80;1.00
9885;DHT22;4981;50.966;4.842;2022-08-21T05:17:58;13.80;1.00
9885;DHT22;4981;50.966;4.842;2022-08-21T05:20:26;13.80;1.00
9885;DHT22;4981;50.966;4.842;2022-08-21T05:22:53;13.80;1.00
9885;DHT22;4981;50.966;4.842;2022-08-21T05:25:21;14.60;1.00
9885;DHT22;4981;50.966;4.842;2022-08-21T05:27:48;14.30;1.00
9885;DHT22;4981;50.966;4.842;2022-08-21T05:30:15;14.20;1.00
9885;DHT22;4981;50.966;4.842;2022-08-21T05:32:42;14.10;1.00
9885;DHT22;4981;50.966;4.842;2022-08-21T05:35:09;14.30;1.00
9885;DHT22;4981;50.966;4.842;2022-08-21T05:37:38;14.30;1.00
9885;DHT22;4981;50.966;4.842;2022-08-21T05:40:07;14.30;1.00
9885;DHT22;4981;50.966;4.842;2022-08-21T05:42:34;14.40;1.00
9885;DHT22;4981;50.966;4.842;2022-08-21T05:45:02;14.30;1.00
9885;DHT22;4981;50.966;4.842;2022-08-21T05:47:29;14.40;1.00
9885;DHT22;4981;50.966;4.842;2022-08-21T05:49:56;14.50;1.00
9885;DHT22;4981;50.966;4.842;2022-08-21T05:52:23;14.40;1.00
9885;DHT22;4981;50.966;4.842;2022-08-21T05:54:52;14.50;1.00
9885;DHT22;4981;50.966;4.842;2022-08-21T05:57:20;14.50;1.00
9885;DHT22;4981;50.966;4.842;2022-08-21T05:59:47;14.70;1.00
9885;DHT22;4981;50.966;4.842;2022-08-21T06:02:17;14.80;1.00
9885;DHT22;4981;50.966;4.842;2022-08-21T06:04:44;14.80;1.00
9885;DHT22;4981;50.966;4.842;2022-08-21T06:07:11;14.80;1.00
9885;DHT22;4981;50.966;4.842;2022-08-21T06:09:38;14.90;1.00
9885;DHT22;4981;50.966;4.842;2022-08-21T06:12:10;15.00;1.00
9885;DHT22;4981;50.966;4.842;2022-08-21T06:14:39;15.10;1.00
9885;DHT22;4981;50.966;4.842;2022-08-21T06:17:09;15.10;1.00
9885;DHT22;4981;50.966;4.842;2022-08-21T06:19:37;15.20;1.00
9885;DHT22;4981;50.966;4.842;2022-08-21T06:22:05;15.30;1.00
9885;DHT22;4981;50.966;4.842;2022-08-21T06:24:32;15.30;1.00
9885;DHT22;4981;50.966;4.842;2022-08-21T06:27:04;15.40;1.00
9885;DHT22;4981;50.966;4.842;2022-08-21T06:29:34;15.40;1.00
9885;DHT22;4981;50.966;4.842;2022-08-21T06:32:04;15.50;1.00
9885;DHT22;4981;50.966;4.842;2022-08-21T06:34:35;15.70;1.00
9885;DHT22;4981;50.966;4.842;2022-08-21T06:37:03;15.70;1.00
9885;DHT22;4981;50.966;4.842;2022-08-21T06:39:30;15.70;1.00
9885;DHT22;4981;50.966;4.842;2022-08-21T06:41:58;15.90;1.00
9885;DHT22;4981;50.966;4.842;2022-08-21T06:44:26;16.00;1.00
9885;DHT22;4981;50.966;4.842;2022-08-21T06:46:55;16.10;1.00
9885;DHT22;4981;50.966;4.842;2022-08-21T06:49:22;16.10;1.00
9885;DHT22;4981;50.966;4.842;2022-08-21T06:51:49;16.20;1.00
9885;DHT22;4981;50.966;4.842;2022-08-21T06:54:16;16.30;1.00
9885;DHT22;4981;50.966;4.842;2022-08-21T06:56:44;16.40;1.00
9885;DHT22;4981;50.966;4.842;2022-08-21T06:59:11;16.40;1.00
9885;DHT22;4981;50.966;4.842;2022-08-21T07:01:39;16.50;1.00
9885;DHT22;4981;50.966;4.842;2022-08-21T07:04:08;16.50;1.00
9885;DHT22;4981;50.966;4.842;2022-08-21T07:06:35;16.60;1.00
9885;DHT22;4981;50.966;4.842;2022-08-21T07:09:03;16.70;1.00
9885;DHT22;4981;50.966;4.842;2022-08-21T07:11:30;16.80;1.00
9885;DHT22;4981;50.966;4.842;2022-08-21T07:13:58;16.90;1.00
9885;DHT22;4981;50.966;4.842;2022-08-21T07:16:25;17.00;1.00
9885;DHT22;4981;50.966;4.842;2022-08-21T07:18:52;16.90;1.00
9885;DHT22;4981;50.966;4.842;2022-08-21T07:21:21;17.10;1.00
9885;DHT22;4981;50.966;4.842;2022-08-21T07:23:50;17.10;1.00
9885;DHT22;4981;50.966;4.842;2022-08-21T07:26:20;17.10;1.00
9885;DHT22;4981;50.966;4.842;2022-08-21T07:28:49;17.10;1.00
9885;DHT22;4981;50.966;4.842;2022-08-21T07:31:18;17.10;1.00
9885;DHT22;4981;50.966;4.842;2022-08-21T07:33:46;17.30;1.00
9885;DHT22;4981;50.966;4.842;2022-08-21T07:36:15;17.40;1.00
9885;DHT22;4981;50.966;4.842;2022-08-21T07:38:44;17.50;1.00
9885;DHT22;4981;50.966;4.842;2022-08-21T07:41:14;17.80;1.00
9885;DHT22;4981;50.966;4.842;2022-08-21T07:43:42;17.80;1.00
9885;DHT22;4981;50.966;4.842;2022-08-21T07:46:10;17.90;1.00
9885;DHT22;4981;50.966;4.842;2022-08-21T07:48:37;17.80;1.00
9885;DHT22;4981;50.966;4.842;2022-08-21T07:51:09;17.80;1.00
9885;DHT22;4981;50.966;4.842;2022-08-21T07:53:37;17.90;1.00
9885;DHT22;4981;50.966;4.842;2022-08-21T07:56:07;18.40;1.00
9885;DHT22;4981;50.966;4.842;2022-08-21T07:58:36;18.00;1.00
9885;DHT22;4981;50.966;4.842;2022-08-21T08:01:05;17.90;1.00
9885;DHT22;4981;50.966;4.842;2022-08-21T08:03:32;18.00;1.00
9885;DHT22;4981;50.966;4.842;2022-08-21T08:05:59;18.00;1.00
9885;DHT22;4981;50.966;4.842;2022-08-21T08:08:29;18.10;1.00
9885;DHT22;4981;50.966;4.842;2022-08-21T08:10:58;18.40;1.00
9885;DHT22;4981;50.966;4.842;2022-08-21T08:13:27;18.30;1.00
9885;DHT22;4981;50.966;4.842;2022-08-21T08:15:54;18.30;1.00
9885;DHT22;4981;50.966;4.842;2022-08-21T08:18:21;18.50;1.00
9885;DHT22;4981;50.966;4.842;2022-08-21T08:20:48;18.80;1.00
9885;DHT22;4981;50.966;4.842;2022-08-21T08:23:15;18.80;1.00
9885;DHT22;4981;50.966;4.842;2022-08-21T08:25:43;18.90;1.00
9885;DHT22;4981;50.966;4.842;2022-08-21T08:28:10;19.10;1.00
9885;DHT22;4981;50.966;4.842;2022-08-21T08:30:39;19.00;1.00
9885;DHT22;4981;50.966;4.842;2022-08-21T08:33:06;19.20;1.00
9885;DHT22;4981;50.966;4.842;2022-08-21T08:35:34;19.00;1.00
9885;DHT22;4981;50.966;4.842;2022-08-21T08:38:01;19.30;1.00
9885;DHT22;4981;50.966;4.842;2022-08-21T08:40:37;19.40;1.00
9885;DHT22;4981;50.966;4.842;2022-08-21T08:43:05;19.60;1.00
9885;DHT22;4981;50.966;4.842;2022-08-21T08:45:36;19.30;1.00
9885;DHT22;4981;50.966;4.842;2022-08-21T08:48:11;19.40;1.00
9885;DHT22;4981;50.966;4.842;2022-08-21T08:50:44;19.30;1.00
9885;DHT22;4981;50.966;4.842;2022-08-21T08:53:18;19.60;1.00
9885;DHT22;4981;50.966;4.842;2022-08-21T08:55:48;19.40;1.00
9885;DHT22;4981;50.966;4.842;2022-08-21T08:58:22;19.50;1.00
9885;DHT22;4981;50.966;4.842;2022-08-21T09:00:51;19.40;1.00
9885;DHT22;4981;50.966;4.842;2022-08-21T09:03:21;19.40;1.00
9885;DHT22;4981;50.966;4.842;2022-08-21T09:05:55;19.40;1.00
9885;DHT22;4981;50.966;4.842;2022-08-21T09:08:38;19.40;1.00
9885;DHT22;4981;50.966;4.842;2022-08-21T09:11:15;19.50;1.00
9885;DHT22;4981;50.966;4.842;2022-08-21T09:13:53;19.50;1.00
9885;DHT22;4981;50.966;4.842;2022-08-21T09:16:28;19.50;1.00
9885;DHT22;4981;50.966;4.842;2022-08-21T09:19:04;19.60;1.00
9885;DHT22;4981;50.966;4.842;2022-08-21T09:21:40;19.80;1.00
9885;DHT22;4981;50.966;4.842;2022-08-21T09:24:26;19.90;1.00
9885;DHT22;4981;50.966;4.842;2022-08-21T09:27:02;20.00;1.00
9885;DHT22;4981;50.966;4.842;2022-08-21T09:29:34;20.00;1.00
9885;DHT22;4981;50.966;4.842;2022-08-21T09:32:04;20.10;1.00
9885;DHT22;4981;50.966;4.842;2022-08-21T09:34:38;19.90;1.00
9885;DHT22;4981;50.966;4.842;2022-08-21T09:37:16;20.10;1.00
9885;DHT22;4981;50.966;4.842;2022-08-21T09:39:44;20.00;1.00
9885;DHT22;4981;50.966;4.842;2022-08-21T09:42:11;20.00;1.00
9885;DHT22;4981;50.966;4.842;2022-08-21T09:44:47;19.90;1.00
9885;DHT22;4981;50.966;4.842;2022-08-21T09:47:18;20.20;1.00
9885;DHT22;4981;50.966;4.842;2022-08-21T09:49:47;20.10;1.00
9885;DHT22;4981;50.966;4.842;2022-08-21T09:52:18;20.30;1.00
9885;DHT22;4981;50.966;4.842;2022-08-21T09:54:50;20.30;1.00
9885;DHT22;4981;50.966;4.842;2022-08-21T09:57:23;20.50;1.00
9885;DHT22;4981;50.966;4.842;2022-08-21T10:00:15;20.80;1.00
9885;DHT22;4981;50.966;4.842;2022-08-21T10:02:44;20.90;1.00
9885;DHT22;4981;50.966;4.842;2022-08-21T10:05:19;21.10;1.00
9885;DHT22;4981;50.966;4.842;2022-08-21T10:07:48;21.20;1.00
9885;DHT22;4981;50.966;4.842;2022-08-21T10:10:19;21.10;1.00
9885;DHT22;4981;50.966;4.842;2022-08-21T10:12:52;21.40;1.00
9885;DHT22;4981;50.966;4.842;2022-08-21T10:15:31;21.30;1.00
9885;DHT22;4981;50.966;4.842;2022-08-21T10:18:09;21.10;1.00
9885;DHT22;4981;50.966;4.842;2022-08-21T10:20:45;21.10;1.00
9885;DHT22;4981;50.966;4.842;2022-08-21T10:23:29;21.00;1.00
9885;DHT22;4981;50.966;4.842;2022-08-21T10:26:08;21.20;1.00
9885;DHT22;4981;50.966;4.842;2022-08-21T10:28:44;21.20;1.00
9885;DHT22;4981;50.966;4.842;2022-08-21T10:31:19;21.30;1.00
9885;DHT22;4981;50.966;4.842;2022-08-21T10:34:01;21.40;1.00
9885;DHT22;4981;50.966;4.842;2022-08-21T10:36:41;21.10;1.00
9885;DHT22;4981;50.966;4.842;2022-08-21T10:39:17;21.30;1.00
9885;DHT22;4981;50.966;4.842;2022-08-21T10:45:00;21.00;1.00
9885;DHT22;4981;50.966;4.842;2022-08-21T10:47:33;21.20;1.00
9885;DHT22;4981;50.966;4.842;2022-08-21T10:50:10;21.40;1.00
9885;DHT22;4981;50.966;4.842;2022-08-21T10:53:01;21.80;1.00
9885;DHT22;4981;50.966;4.842;2022-08-21T10:55:36;21.60;1.00
9885;DHT22;4981;50.966;4.842;2022-08-21T10:58:09;21.70;1.00
9885;DHT22;4981;50.966;4.842;2022-08-21T11:00:43;21.90;1.00
9885;DHT22;4981;50.966;4.842;2022-08-21T11:03:14;22.10;1.00
9885;DHT22;4981;50.966;4.842;2022-08-21T11:05:47;22.00;1.00
9885;DHT22;4981;50.966;4.842;2022-08-21T11:08:22;22.10;1.00
9885;DHT22;4981;50.966;4.842;2022-08-21T11:10:53;22.20;1.00
9885;DHT22;4981;50.966;4.842;2022-08-21T11:13:28;22.10;1.00
9885;DHT22;4981;50.966;4.842;2022-08-21T11:16:02;22.20;1.00
9885;DHT22;4981;50.966;4.842;2022-08-21T11:18:33;22.50;1.00
9885;DHT22;4981;50.966;4.842;2022-08-21T11:21:19;22.20;1.00
9885;DHT22;4981;50.966;4.842;2022-08-21T11:23:59;22.50;1.00
9885;DHT22;4981;50.966;4.842;2022-08-21T11:26:34;22.50;1.00
9885;DHT22;4981;50.966;4.842;2022-08-21T11:29:09;22.20;1.00
9885;DHT22;4981;50.966;4.842;2022-08-21T11:31:49;22.10;1.00
9885;DHT22;4981;50.966;4.842;2022-08-21T11:34:30;22.10;1.00
9885;DHT22;4981;50.966;4.842;2022-08-21T11:37:07;22.30;1.00
9885;DHT22;4981;50.966;4.842;2022-08-21T11:39:44;22.50;1.00
9885;DHT22;4981;50.966;4.842;2022-08-21T11:45:12;22.20;1.00
9885;DHT22;4981;50.966;4.842;2022-08-21T11:47:51;22.40;1.00
9885;DHT22;4981;50.966;4.842;2022-08-21T11:50:23;22.60;1.00
9885;DHT22;4981;50.966;4.842;2022-08-21T11:52:56;23.40;1.00
9885;DHT22;4981;50.966;4.842;2022-08-21T11:55:32;23.20;1.00
9885;DHT22;4981;50.966;4.842;2022-08-21T11:58:05;22.60;1.00
9885;DHT22;4981;50.966;4.842;2022-08-21T12:00:38;22.60;1.00
9885;DHT22;4981;50.966;4.842;2022-08-21T12:03:09;22.20;1.00
9885;DHT22;4981;50.966;4.842;2022-08-21T12:05:39;22.40;1.00
9885;DHT22;4981;50.966;4.842;2022-08-21T12:08:12;22.20;1.00
9885;DHT22;4981;50.966;4.842;2022-08-21T12:10:46;22.90;1.00
9885;DHT22;4981;50.966;4.842;2022-08-21T12:13:24;24.80;1.00
9885;DHT22;4981;50.966;4.842;2022-08-21T12:15:52;26.20;5.50
9885;DHT22;4981;50.966;4.842;2022-08-21T12:18:23;25.60;1.00
9885;DHT22;4981;50.966;4.842;2022-08-21T12:21:01;26.00;1.00
9885;DHT22;4981;50.966;4.842;2022-08-21T12:23:31;26.00;1.00
9885;DHT22;4981;50.966;4.842;2022-08-21T12:26:09;25.80;1.00
9885;DHT22;4981;50.966;4.842;2022-08-21T12:28:37;26.70;1.00
9885;DHT22;4981;50.966;4.842;2022-08-21T12:31:17;28.00;1.00
9885;DHT22;4981;50.966;4.842;2022-08-21T12:33:51;27.20;1.00
9885;DHT22;4981;50.966;4.842;2022-08-21T12:36:23;25.90;1.00
9885;DHT22;4981;50.966;4.842;2022-08-21T12:38:54;26.00;1.00
9885;DHT22;4981;50.966;4.842;2022-08-21T12:41:28;25.70;1.00
9885;DHT22;4981;50.966;4.842;2022-08-21T12:43:59;25.90;1.00
9885;DHT22;4981;50.966;4.842;2022-08-21T12:46:32;27.30;1.00
9885;DHT22;4981;50.966;4.842;2022-08-21T12:49:11;27.00;1.00
9885;DHT22;4981;50.966;4.842;2022-08-21T12:51:50;27.60;1.00
9885;DHT22;4981;50.966;4.842;2022-08-21T12:54:25;26.40;1.00
9885;DHT22;4981;50.966;4.842;2022-08-21T12:57:19;28.10;1.00
9885;DHT22;4981;50.966;4.842;2022-08-21T12:59:52;29.30;1.00
9885;DHT22;4981;50.966;4.842;2022-08-21T13:02:22;28.80;1.00
9885;DHT22;4981;50.966;4.842;2022-08-21T13:04:50;28.50;1.00
9885;DHT22;4981;50.966;4.842;2022-08-21T13:07:24;28.60;1.00
9885;DHT22;4981;50.966;4.842;2022-08-21T13:09:55;27.90;1.00
9885;DHT22;4981;50.966;4.842;2022-08-21T13:12:25;28.40;1.00
9885;DHT22;4981;50.966;4.842;2022-08-21T13:14:56;27.60;1.00
9885;DHT22;4981;50.966;4.842;2022-08-21T13:17:26;28.30;1.00
9885;DHT22;4981;50.966;4.842;2022-08-21T13:19:58;29.60;1.00
9885;DHT22;4981;50.966;4.842;2022-08-21T13:22:26;29.40;1.00
9885;DHT22;4981;50.966;4.842;2022-08-21T13:24:54;27.80;1.00
9885;DHT22;4981;50.966;4.842;2022-08-21T13:27:26;27.90;1.00
9885;DHT22;4981;50.966;4.842;2022-08-21T13:30:05;26.80;1.00
9885;DHT22;4981;50.966;4.842;2022-08-21T13:32:37;27.10;1.00
9885;DHT22;4981;50.966;4.842;2022-08-21T13:35:11;27.20;1.00
9885;DHT22;4981;50.966;4.842;2022-08-21T13:37:40;26.50;1.00
9885;DHT22;4981;50.966;4.842;2022-08-21T13:40:11;26.00;1.00
9885;DHT22;4981;50.966;4.842;2022-08-21T13:42:44;25.40;1.00
9885;DHT22;4981;50.966;4.842;2022-08-21T13:45:15;25.90;1.00
9885;DHT22;4981;50.966;4.842;2022-08-21T13:47:43;26.10;1.00
9885;DHT22;4981;50.966;4.842;2022-08-21T13:50:14;26.70;1.00
9885;DHT22;4981;50.966;4.842;2022-08-21T13:52:56;26.70;1.00
9885;DHT22;4981;50.966;4.842;2022-08-21T13:55:24;26.00;1.00
9885;DHT22;4981;50.966;4.842;2022-08-21T13:58:00;26.40;1.00
9885;DHT22;4981;50.966;4.842;2022-08-21T14:00:30;25.90;1.00
9885;DHT22;4981;50.966;4.842;2022-08-21T14:03:04;26.50;1.00
9885;DHT22;4981;50.966;4.842;2022-08-21T14:05:34;26.60;1.00
9885;DHT22;4981;50.966;4.842;2022-08-21T14:08:05;25.80;1.00
9885;DHT22;4981;50.966;4.842;2022-08-21T14:10:36;26.20;1.00
9885;DHT22;4981;50.966;4.842;2022-08-21T14:13:06;27.40;1.00
9885;DHT22;4981;50.966;4.842;2022-08-21T14:15:34;28.30;1.00
9885;DHT22;4981;50.966;4.842;2022-08-21T14:18:13;27.60;1.00
9885;DHT22;4981;50.966;4.842;2022-08-21T14:20:41;28.70;1.00
9885;DHT22;4981;50.966;4.842;2022-08-21T14:23:09;29.30;1.00
9885;DHT22;4981;50.966;4.842;2022-08-21T14:25:40;29.60;1.00
9885;DHT22;4981;50.966;4.842;2022-08-21T14:28:15;28.90;1.00
9885;DHT22;4981;50.966;4.842;2022-08-21T14:30:46;27.70;1.00
9885;DHT22;4981;50.966;4.842;2022-08-21T14:33:20;27.30;1.00
9885;DHT22;4981;50.966;4.842;2022-08-21T14:35:49;26.80;1.00
9885;DHT22;4981;50.966;4.842;2022-08-21T14:38:17;26.50;1.00
9885;DHT22;4981;50.966;4.842;2022-08-21T14:40:49;26.30;1.00
9885;DHT22;4981;50.966;4.842;2022-08-21T14:43:19;26.00;1.00
9885;DHT22;4981;50.966;4.842;2022-08-21T14:45:47;25.80;1.00
9885;DHT22;4981;50.966;4.842;2022-08-21T14:48:15;25.60;1.00
9885;DHT22;4981;50.966;4.842;2022-08-21T14:50:42;25.90;1.00
9885;DHT22;4981;50.966;4.842;2022-08-21T14:53:09;26.30;1.00
9885;DHT22;4981;50.966;4.842;2022-08-21T14:55:37;26.20;1.00
9885;DHT22;4981;50.966;4.842;2022-08-21T14:58:21;27.20;1.00
9885;DHT22;4981;50.966;4.842;2022-08-21T15:00:50;27.00;1.00
9885;DHT22;4981;50.966;4.842;2022-08-21T15:03:18;26.50;1.00
9885;DHT22;4981;50.966;4.842;2022-08-21T15:05:47;26.80;1.00
9885;DHT22;4981;50.966;4.842;2022-08-21T15:08:14;26.40;1.00
9885;DHT22;4981;50.966;4.842;2022-08-21T15:10:42;27.10;1.00
9885;DHT22;4981;50.966;4.842;2022-08-21T15:13:09;27.90;1.00
9885;DHT22;4981;50.966;4.842;2022-08-21T15:15:40;26.80;1.00
9885;DHT22;4981;50.966;4.842;2022-08-21T15:18:08;26.80;1.00
9885;DHT22;4981;50.966;4.842;2022-08-21T15:20:36;26.70;1.00
9885;DHT22;4981;50.966;4.842;2022-08-21T15:23:05;25.60;1.00
9885;DHT22;4981;50.966;4.842;2022-08-21T15:25:33;25.60;1.00
9885;DHT22;4981;50.966;4.842;2022-08-21T15:28:01;25.70;1.00
9885;DHT22;4981;50.966;4.842;2022-08-21T15:30:30;25.90;1.00
9885;DHT22;4981;50.966;4.842;2022-08-21T15:32:59;25.90;1.00
9885;DHT22;4981;50.966;4.842;2022-08-21T15:35:26;25.80;1.00
9885;DHT22;4981;50.966;4.842;2022-08-21T15:37:53;25.50;1.00
9885;DHT22;4981;50.966;4.842;2022-08-21T15:40:22;25.50;1.00
9885;DHT22;4981;50.966;4.842;2022-08-21T15:42:50;25.30;1.00
9885;DHT22;4981;50.966;4.842;2022-08-21T15:45:19;25.50;1.00
9885;DHT22;4981;50.966;4.842;2022-08-21T15:47:49;25.60;1.00
9885;DHT22;4981;50.966;4.842;2022-08-21T15:50:19;25.20;1.00
9885;DHT22;4981;50.966;4.842;2022-08-21T15:52:47;25.60;1.00
9885;DHT22;4981;50.966;4.842;2022-08-21T15:55:14;25.20;1.00
9885;DHT22;4981;50.966;4.842;2022-08-21T15:57:44;25.40;1.00
9885;DHT22;4981;50.966;4.842;2022-08-21T16:00:15;25.30;1.00
9885;DHT22;4981;50.966;4.842;2022-08-21T16:02:46;25.00;1.00
9885;DHT22;4981;50.966;4.842;2022-08-21T16:05:15;24.90;1.00
9885;DHT22;4981;50.966;4.842;2022-08-21T16:07:46;24.90;1.00
9885;DHT22;4981;50.966;4.842;2022-08-21T16:10:15;24.80;1.00
9885;DHT22;4981;50.966;4.842;2022-08-21T16:12:46;24.80;1.00
9885;DHT22;4981;50.966;4.842;2022-08-21T16:15:15;24.70;1.00
9885;DHT22;4981;50.966;4.842;2022-08-21T16:17:44;24.60;1.00
9885;DHT22;4981;50.966;4.842;2022-08-21T16:20:16;25.00;1.00
9885;DHT22;4981;50.966;4.842;2022-08-21T16:22:47;24.80;1.00
9885;DHT22;4981;50.966;4.842;2022-08-21T16:25:15;24.60;1.00
9885;DHT22;4981;50.966;4.842;2022-08-21T16:27:44;24.70;1.00
9885;DHT22;4981;50.966;4.842;2022-08-21T16:30:23;24.90;1.00
9885;DHT22;4981;50.966;4.842;2022-08-21T16:32:51;24.00;1.00
9885;DHT22;4981;50.966;4.842;2022-08-21T16:35:19;24.10;1.00
9885;DHT22;4981;50.966;4.842;2022-08-21T16:37:48;24.30;1.00
9885;DHT22;4981;50.966;4.842;2022-08-21T16:40:16;24.40;1.00
9885;DHT22;4981;50.966;4.842;2022-08-21T16:42:43;24.20;1.00